Time;durP1;ratioP1;P1;durP2;ratioP2;P2;SDS_P1;SDS_P2;PMS_P1;PMS_P2;Temp;Humidity;BMP_temperature;BMP_pressure;BME280_temperature;BME280_humidity;BME280_pressure;Samples;Min_cycle;Max_cycle;Signal;HPM_P1;HPM_P2
2023/06/09 00:00:22;;;;;;;8.68;7.50;;;;;;;15.44;100.00;100580.69;671167;29;1187;-79
2023/06/09 00:00:45;;;;;;;8.13;7.10;;;;;;;15.46;100.00;100604.34;668090;29;1242;-80
2023/06/09 00:01:09;;;;;;;8.60;7.35;;;;;;;15.43;100.00;100594.75;671578;29;1492;-80
2023/06/09 00:01:35;;;;;;;8.82;7.60;;;;;;;15.47;100.00;100600.81;670120;29;1629;-80
2023/06/09 00:01:58;;;;;;;8.07;7.28;;;;;;;15.46;100.00;100599.09;674564;29;1288;-80
2023/06/09 00:02:29;;;;;;;8.07;7.28;;;;;;;15.45;100.00;100597.34;678509;29;1140;-80
2023/06/09 00:02:52;;;;;;;8.05;7.18;;;;;;;15.41;100.00;100591.31;675657;29;1193;-80
2023/06/09 00:03:15;;;;;;;8.27;7.10;;;;;;;15.37;100.00;100604.59;677077;29;1125;-80
2023/06/09 00:03:37;;;;;;;8.20;7.35;;;;;;;15.39;100.00;100586.97;673071;29;1323;-80
2023/06/09 00:03:58;;;;;;;8.20;7.35;;;;;;;15.39;100.00;100585.19;675686;29;1291;-79
2023/06/09 00:04:18;;;;;;;8.10;7.30;;;;;;;15.38;100.00;100601.06;679692;29;1250;-80
2023/06/09 00:04:45;;;;;;;8.30;7.40;;;;;;;15.34;100.00;100587.13;677716;29;1344;-79
2023/06/09 00:05:09;;;;;;;9.27;7.28;;;;;;;15.30;100.00;100612.66;672839;29;1243;-80
2023/06/09 00:05:35;;;;;;;9.55;7.00;;;;;;;15.31;100.00;100605.59;672571;29;1062;-79
2023/06/09 00:06:01;;;;;;;9.93;7.35;;;;;;;15.33;100.00;100603.81;669566;29;1661;-80
2023/06/09 00:06:25;;;;;;;8.95;7.75;;;;;;;15.33;100.00;100601.19;672274;29;1324;-79
2023/06/09 00:06:48;;;;;;;8.68;7.70;;;;;;;15.34;100.00;100600.28;668019;29;1489;-80
2023/06/09 00:07:15;;;;;;;8.57;7.60;;;;;;;15.33;100.00;100593.28;674341;29;1156;-80
2023/06/09 00:07:39;;;;;;;8.93;7.60;;;;;;;15.31;100.00;100603.84;671953;29;1126;-80
2023/06/09 00:08:00;;;;;;;9.40;7.32;;;;;;;15.32;100.00;100612.63;672034;29;886;-80
2023/06/09 00:08:21;;;;;;;8.55;7.03;;;;;;;15.30;100.00;100580.19;671122;29;1335;-80
2023/06/09 00:08:42;;;;;;;7.93;7.07;;;;;;;15.25;100.00;100590.81;667979;29;1988;-80
2023/06/09 00:09:04;;;;;;;7.90;6.82;;;;;;;15.24;100.00;100615.41;670141;29;1216;-80
2023/06/09 00:09:24;;;;;;;7.93;7.10;;;;;;;15.27;100.00;100582.88;674294;29;1402;-80
2023/06/09 00:10:06;;;;;;;8.45;7.13;;;;;;;15.30;100.00;100598.63;675109;29;1054;-80
2023/06/09 00:10:29;;;;;;;8.52;7.50;;;;;;;15.29;100.00;100596.91;675265;29;1274;-80
2023/06/09 00:10:52;;;;;;;8.15;7.30;;;;;;;15.26;100.00;100575.91;677161;29;1183;-80
2023/06/09 00:11:13;;;;;;;8.15;7.20;;;;;;;15.26;100.00;100605.72;677601;29;1394;-80
2023/06/09 00:11:36;;;;;;;8.52;7.55;;;;;;;15.26;100.00;100575.91;675768;29;1237;-80
2023/06/09 00:11:57;;;;;;;8.95;7.38;;;;;;;15.25;100.00;100592.59;672686;29;3325;-80
2023/06/09 00:12:21;;;;;;;8.20;6.97;;;;;;;15.22;100.00;100579.53;673721;29;1605;-80
2023/06/09 00:12:42;;;;;;;8.32;7.38;;;;;;;15.24;100.00;100594.34;672081;29;1305;-80
2023/06/09 00:13:21;;;;;;;8.20;7.30;;;;;;;15.25;100.00;100592.59;672010;29;1435;-80
2023/06/09 00:13:45;;;;;;;8.77;7.28;;;;;;;15.26;100.00;100615.41;675911;29;1299;-80
2023/06/09 00:14:06;;;;;;;8.50;7.47;;;;;;;15.23;100.00;100576.84;678250;29;1335;-80
2023/06/09 00:14:29;;;;;;;8.27;7.15;;;;;;;15.30;100.00;100604.75;679249;29;1160;-79
2023/06/09 00:14:58;;;;;;;9.07;7.47;;;;;;;15.32;100.00;100600.28;674006;29;1287;-80
2023/06/09 00:15:21;;;;;;;9.05;7.85;;;;;;;15.29;100.00;100600.38;672923;29;1218;-80
2023/06/09 00:15:42;;;;;;;8.25;7.35;;;;;;;15.28;100.00;100596.00;670927;29;3582;-79
2023/06/09 00:16:23;;;;;;;8.13;7.33;;;;;;;15.28;100.00;100595.16;674320;29;921;-80
2023/06/09 00:16:46;;;;;;;7.85;7.05;;;;;;;15.28;100.00;100584.63;678106;29;983;-80
2023/06/09 00:17:12;;;;;;;7.90;6.97;;;;;;;15.28;100.00;100590.75;673730;29;1484;-80
2023/06/09 00:17:49;;;;;;;7.80;7.00;;;;;;;15.28;100.00;100572.31;672412;29;1444;-80
2023/06/09 00:18:09;;;;;;;8.48;7.20;;;;;;;15.23;100.00;100587.38;669500;29;1412;-79
2023/06/09 00:18:37;;;;;;;8.65;7.32;;;;;;;15.21;100.00;100583.06;671368;29;1318;-80
2023/06/09 00:19:05;;;;;;;8.43;7.53;;;;;;;15.22;100.00;100563.72;674353;29;1311;-80
2023/06/09 00:19:35;;;;;;;8.18;7.20;;;;;;;15.22;100.00;100572.47;674417;29;1360;-80
2023/06/09 00:20:03;;;;;;;8.57;7.68;;;;;;;15.17;100.00;100566.47;674963;29;1405;-80
2023/06/09 00:20:33;;;;;;;8.35;7.47;;;;;;;15.15;100.00;100582.28;669010;29;1133;-79
2023/06/09 00:20:59;;;;;;;8.63;7.40;;;;;;;15.13;100.00;100581.47;674264;29;1700;-80
2023/06/09 00:21:25;;;;;;;8.40;7.20;;;;;;;15.09;100.00;100568.41;676947;29;1353;-79
2023/06/09 00:21:53;;;;;;;8.65;7.53;;;;;;;15.06;100.00;100564.09;678633;29;1205;-79
2023/06/09 00:22:17;;;;;;;8.07;7.28;;;;;;;15.11;100.00;100579.78;677061;29;1451;-80
2023/06/09 00:22:58;;;;;;;8.70;7.80;;;;;;;15.12;100.00;100584.16;675989;29;1252;-80
2023/06/09 00:23:28;;;;;;;9.32;7.00;;;;;;;15.09;100.00;100586.84;675002;29;1456;-80
2023/06/09 00:23:55;;;;;;;9.15;7.35;;;;;;;15.09;100.00;100557.88;678072;29;947;-79
2023/06/09 00:24:25;;;;;;;8.52;7.63;;;;;;;15.09;100.00;100558.78;677028;29;1426;-80
2023/06/09 00:24:49;;;;;;;8.27;7.05;;;;;;;15.08;100.00;100572.81;677999;29;1204;-79
2023/06/09 00:25:15;;;;;;;8.23;7.25;;;;;;;15.11;100.00;100593.81;675887;29;1189;-80
2023/06/09 00:25:38;;;;;;;8.23;7.22;;;;;;;15.12;100.00;100557.84;678952;29;1261;-80
2023/06/09 00:26:04;;;;;;;8.57;7.57;;;;;;;15.12;100.00;100563.09;679101;29;1713;-80
2023/06/09 00:26:27;;;;;;;8.43;7.50;;;;;;;15.10;100.00;100580.69;678921;29;1419;-79
2023/06/09 00:26:48;;;;;;;7.93;7.13;;;;;;;15.07;100.00;100551.81;671346;29;1715;-80
2023/06/09 00:27:09;;;;;;;8.25;7.18;;;;;;;15.07;100.00;100581.63;679258;29;1530;-80
2023/06/09 00:27:42;;;;;;;8.30;7.30;;;;;;;15.06;100.00;100568.50;672757;29;1225;-79
2023/06/09 00:28:04;;;;;;;12.10;8.45;;;;;;;15.02;100.00;100574.75;679846;29;941;-80
2023/06/09 00:28:28;;;;;;;9.27;7.60;;;;;;;15.02;100.00;100551.06;677174;29;1235;-80
2023/06/09 00:28:58;;;;;;;8.55;7.43;;;;;;;14.96;100.00;100581.88;676398;29;1970;-79
2023/06/09 00:29:27;;;;;;;8.93;7.40;;;;;;;14.93;100.00;100589.84;674459;29;1159;-79
2023/06/09 00:30:01;;;;;;;8.32;7.43;;;;;;;14.92;100.00;100561.78;676336;29;1279;-79
2023/06/09 00:30:22;;;;;;;8.70;7.78;;;;;;;14.92;100.00;100574.97;677964;29;860;-80
2023/06/09 00:30:45;;;;;;;8.35;7.43;;;;;;;14.91;100.00;100577.63;680318;29;1383;-80
2023/06/09 00:31:17;;;;;;;9.18;7.15;;;;;;;14.94;100.00;100578.44;676297;29;1287;-80
2023/06/09 00:31:48;;;;;;;9.23;7.35;;;;;;;14.93;100.00;100578.47;676322;29;1081;-80
2023/06/09 00:32:11;;;;;;;8.43;7.25;;;;;;;14.91;100.00;100554.81;674317;29;1266;-80
2023/06/09 00:32:39;;;;;;;9.20;8.05;;;;;;;14.90;100.00;100557.50;671878;29;1309;-80
2023/06/09 00:33:05;;;;;;;9.25;7.80;;;;;;;14.90;100.00;100576.78;675173;29;842;-80
2023/06/09 00:33:36;;;;;;;9.88;7.47;;;;;;;14.93;100.00;100578.47;672158;29;1327;-80
2023/06/09 00:34:06;;;;;;;9.20;7.75;;;;;;;14.93;100.00;100587.22;673995;29;1395;-80
2023/06/09 00:34:28;;;;;;;9.00;7.78;;;;;;;14.90;100.00;100573.28;671573;29;1453;-79
2023/06/09 00:34:49;;;;;;;9.10;7.47;;;;;;;14.88;100.00;100575.94;673781;29;1447;-80
2023/06/09 00:35:14;;;;;;;8.73;7.57;;;;;;;14.86;100.00;100569.84;674115;29;1381;-80
2023/06/09 00:35:38;;;;;;;8.55;7.57;;;;;;;14.90;100.00;100552.25;675752;29;929;-80
2023/06/09 00:35:58;;;;;;;8.38;7.47;;;;;;;14.91;100.00;100586.41;676547;29;1391;-79
2023/06/09 00:36:22;;;;;;;8.13;7.32;;;;;;;14.89;100.00;100567.16;675495;29;1167;-79
2023/06/09 00:36:46;;;;;;;8.32;7.40;;;;;;;14.92;100.00;100553.03;669708;29;1324;-79
2023/06/09 00:37:18;;;;;;;8.43;7.30;;;;;;;14.94;100.00;100553.91;674023;29;1400;-79
2023/06/09 00:37:41;;;;;;;8.60;7.35;;;;;;;14.96;100.00;100547.66;668817;29;1309;-79
2023/06/09 00:38:04;;;;;;;8.85;7.40;;;;;;;14.97;100.00;100569.59;670210;29;918;-80
2023/06/09 00:38:30;;;;;;;9.20;7.65;;;;;;;14.97;100.00;100573.09;671704;29;1419;-80
2023/06/09 00:38:50;;;;;;;8.60;7.70;;;;;;;14.94;100.00;100567.06;673073;29;1150;-80
2023/06/09 00:39:16;;;;;;;8.88;7.45;;;;;;;14.96;100.00;100570.50;678328;29;1329;-80
2023/06/09 00:39:36;;;;;;;8.23;7.32;;;;;;;14.97;100.00;100559.94;677426;29;931;-80
2023/06/09 00:40:11;;;;;;;8.48;7.60;;;;;;;14.96;100.00;100583.66;675731;29;1394;-80
2023/06/09 00:40:32;;;;;;;8.25;7.38;;;;;;;14.90;100.00;100553.09;677100;29;1464;-80
2023/06/09 00:40:56;;;;;;;8.68;7.38;;;;;;;14.89;100.00;100579.44;675369;29;1304;-80
2023/06/09 00:41:16;;;;;;;8.25;7.25;;;;;;;14.85;100.00;100576.00;679420;29;1393;-80
2023/06/09 00:41:44;;;;;;;8.63;7.40;;;;;;;14.82;100.00;100573.47;677329;29;1321;-80
2023/06/09 00:42:10;;;;;;;8.65;7.32;;;;;;;14.82;100.00;100565.56;677195;29;1313;-80
2023/06/09 00:42:34;;;;;;;8.40;7.32;;;;;;;14.79;100.00;100576.19;677073;29;1355;-80
2023/06/09 00:42:55;;;;;;;9.75;7.70;;;;;;;14.77;100.00;100577.97;675068;29;1195;-80
2023/06/09 00:43:18;;;;;;;8.75;7.55;;;;;;;14.77;100.00;100586.75;676942;29;1430;-80
2023/06/09 00:43:50;;;;;;;8.45;7.47;;;;;;;14.77;100.00;100557.78;676437;29;1035;-80
2023/06/09 00:44:17;;;;;;;9.43;7.60;;;;;;;14.79;100.00;100565.66;679144;29;1497;-80
2023/06/09 00:44:41;;;;;;;8.75;7.43;;;;;;;14.78;100.00;100587.59;678895;28;1095;-80
2023/06/09 00:45:04;;;;;;;8.95;7.38;;;;;;;14.79;100.00;100586.69;676621;29;1376;-80
2023/06/09 00:45:27;;;;;;;9.95;7.78;;;;;;;14.77;100.00;100593.75;676817;29;1335;-80
2023/06/09 00:45:47;;;;;;;8.52;7.53;;;;;;;14.72;100.00;100567.56;676189;29;962;-80
2023/06/09 00:46:16;;;;;;;9.43;7.50;;;;;;;14.69;100.00;100579.91;673087;29;1394;-80
2023/06/09 00:46:42;;;;;;;8.15;7.25;;;;;;;14.64;100.00;100593.19;672581;29;1293;-80
2023/06/09 00:47:04;;;;;;;8.38;7.57;;;;;;;14.62;100.00;100595.84;670341;29;1288;-80
2023/06/09 00:47:30;;;;;;;8.35;7.45;;;;;;;14.61;100.00;100572.16;678866;29;1285;-80
2023/06/09 00:47:54;;;;;;;8.10;7.30;;;;;;;14.59;100.00;100579.22;677862;29;1268;-79
2023/06/09 00:48:23;;;;;;;8.32;7.40;;;;;;;14.63;100.00;100576.53;679000;29;1037;-79
2023/06/09 00:48:46;;;;;;;8.38;7.50;;;;;;;14.66;100.00;100574.72;679449;29;1981;-80
2023/06/09 00:49:09;;;;;;;8.55;7.65;;;;;;;14.67;100.00;100560.69;680455;29;1337;-79
2023/06/09 00:49:31;;;;;;;8.25;7.43;;;;;;;14.68;100.00;100583.47;678658;29;1432;-80
2023/06/09 00:49:53;;;;;;;8.57;7.68;;;;;;;14.70;100.00;100593.03;677295;29;1112;-80
2023/06/09 00:50:16;;;;;;;7.95;7.15;;;;;;;14.70;100.00;100602.69;677034;29;1356;-80
2023/06/09 00:50:42;;;;;;;8.35;7.55;;;;;;;14.66;100.00;100575.56;671032;29;1477;-80
2023/06/09 00:51:12;;;;;;;8.93;7.57;;;;;;;14.67;100.00;100565.94;671712;29;1409;-79
2023/06/09 00:51:36;;;;;;;9.13;7.45;;;;;;;14.65;100.00;100560.72;672714;29;1383;-79
2023/06/09 00:51:57;;;;;;;9.27;7.68;;;;;;;14.64;100.00;100572.97;679559;29;1404;-80
2023/06/09 00:52:24;;;;;;;8.40;7.50;;;;;;;14.70;100.00;100576.38;671555;29;1223;-80
2023/06/09 00:52:48;;;;;;;9.15;7.75;;;;;;;14.70;100.00;100557.97;673626;29;991;-80
2023/06/09 00:53:13;;;;;;;8.35;7.50;;;;;;;14.69;100.00;100579.91;674918;29;1116;-80
2023/06/09 00:53:41;;;;;;;8.10;7.28;;;;;;;14.68;100.00;100575.56;674030;29;1282;-80
2023/06/09 00:54:03;;;;;;;9.23;7.10;;;;;;;14.69;100.00;100567.63;674533;29;1134;-80
2023/06/09 00:54:24;;;;;;;9.00;7.20;;;;;;;14.67;100.00;100556.25;671604;29;1343;-80
2023/06/09 00:54:48;;;;;;;8.45;7.38;;;;;;;14.67;100.00;100565.94;673454;29;1423;-80
2023/06/09 00:55:12;;;;;;;8.80;7.78;;;;;;;14.67;100.00;100565.94;669501;29;980;-80
2023/06/09 00:55:34;;;;;;;8.73;7.57;;;;;;;14.64;100.00;100562.47;670681;29;1603;-80
2023/06/09 00:55:57;;;;;;;9.15;7.32;;;;;;;14.62;100.00;100574.78;674095;29;1288;-80
2023/06/09 00:56:26;;;;;;;8.63;7.40;;;;;;;14.66;100.00;100564.19;674150;29;1407;-80
2023/06/09 00:56:55;;;;;;;8.40;7.47;;;;;;;14.75;100.00;100564.00;670234;29;866;-80
2023/06/09 00:57:18;;;;;;;9.07;7.50;;;;;;;14.73;100.00;100586.81;670841;29;1455;-80
2023/06/09 00:57:39;;;;;;;8.75;7.50;;;;;;;14.72;100.00;100579.84;671823;29;1363;-80
2023/06/09 00:58:02;;;;;;;8.45;7.53;;;;;;;14.70;100.00;100576.38;676179;29;826;-80
2023/06/09 00:58:27;;;;;;;9.15;7.28;;;;;;;14.69;100.00;100569.38;675472;29;1321;-80
2023/06/09 00:58:56;;;;;;;8.35;7.20;;;;;;;14.64;100.00;100596.66;681215;29;1334;-80
2023/06/09 00:59:25;;;;;;;7.93;7.13;;;;;;;14.60;100.00;100581.81;678930;29;1218;-80
2023/06/09 00:59:55;;;;;;;8.60;7.70;;;;;;;14.62;100.00;100584.41;679201;29;943;-79
2023/06/09 01:00:18;;;;;;;8.20;7.20;;;;;;;14.59;100.00;100582.72;679406;29;1485;-79
2023/06/09 01:00:39;;;;;;;8.35;7.47;;;;;;;14.60;100.00;100568.66;672799;29;1492;-79
2023/06/09 01:01:20;;;;;;;8.38;7.50;;;;;;;14.58;100.00;100578.38;668973;29;1389;-80
2023/06/09 01:01:44;;;;;;;8.77;7.47;;;;;;;14.58;100.00;100591.53;675164;29;1581;-79
2023/06/09 01:02:12;;;;;;;10.23;7.75;;;;;;;14.55;100.00;100557.41;675862;29;1457;-80
2023/06/09 01:02:38;;;;;;;8.15;7.22;;;;;;;14.51;100.00;100571.53;678964;29;1237;-80
2023/06/09 01:03:05;;;;;;;8.77;7.88;;;;;;;14.51;100.00;100587.31;679212;29;1550;-80
2023/06/09 01:03:32;;;;;;;9.40;8.50;;;;;;;14.48;100.00;100572.44;672538;29;1157;-80
2023/06/09 01:03:59;;;;;;;8.82;7.93;;;;;;;14.46;100.00;100563.72;673097;29;1283;-80
2023/06/09 01:04:32;;;;;;;8.30;7.28;;;;;;;14.46;100.00;100566.34;674304;29;1261;-80
2023/06/09 01:04:54;;;;;;;8.93;7.50;;;;;;;14.46;100.00;100568.97;673029;29;1428;-80
2023/06/09 01:05:16;;;;;;;9.40;7.43;;;;;;;14.46;100.00;100584.75;677361;29;1453;-80
2023/06/09 01:05:44;;;;;;;8.40;7.38;;;;;;;14.44;100.00;100565.53;678572;29;1292;-79
2023/06/09 01:06:23;;;;;;;9.77;7.75;;;;;;;14.39;100.00;100561.28;675044;29;1437;-80
2023/06/09 01:07:20;;;;;;;8.63;7.67;;;;;;;14.39;100.00;100563.91;669076;29;1358;-80
2023/06/09 01:07:54;;;;;;;8.32;7.38;;;;;;;14.41;100.00;100567.34;671912;29;1360;-80
2023/06/09 01:08:25;;;;;;;8.80;7.60;;;;;;;14.43;100.00;100557.69;675319;29;3480;-80
2023/06/09 01:08:57;;;;;;;9.25;8.13;;;;;;;14.43;100.00;100557.69;675692;29;1994;-80
2023/06/09 01:09:33;;;;;;;8.60;7.70;;;;;;;14.38;100.00;100570.06;674351;29;2189;-79
2023/06/09 01:10:34;;;;;;;8.57;7.68;;;;;;;14.25;100.00;100548.44;673023;29;1127;-79
2023/06/09 01:11:09;;;;;;;9.20;7.70;;;;;;;14.18;100.00;100547.69;670343;29;1387;-80
2023/06/09 01:11:34;;;;;;;8.50;7.40;;;;;;;14.22;100.00;100565.13;666502;29;1590;-79
2023/06/09 01:12:19;;;;;;;8.77;7.32;;;;;;;14.25;100.00;100558.94;672327;29;1279;-79
2023/06/09 01:12:40;;;;;;;8.50;7.57;;;;;;;14.26;100.00;100545.75;674883;29;984;-80
2023/06/09 01:13:17;;;;;;;8.45;7.55;;;;;;;14.23;100.00;100551.09;677105;29;1190;-79
2023/06/09 01:14:02;;;;;;;10.48;7.75;;;;;;;14.27;100.00;100543.97;674553;29;1329;-79
2023/06/09 01:14:48;;;;;;;8.20;7.25;;;;;;;14.29;100.00;100565.88;677611;29;1298;-79
2023/06/09 01:15:17;;;;;;;9.10;7.57;;;;;;;14.27;100.00;100568.53;669495;29;1507;-80
2023/06/09 01:15:48;;;;;;;9.57;7.70;;;;;;;14.33;100.00;100551.75;663319;29;3045;-80
2023/06/09 01:16:26;;;;;;;8.90;8.00;;;;;;;14.31;100.00;100553.53;669180;29;1238;-79
2023/06/09 01:17:18;;;;;;;8.55;7.70;;;;;;;14.36;100.00;100545.53;673455;29;1417;-79
2023/06/09 01:17:50;;;;;;;8.57;7.68;;;;;;;14.34;100.00;100549.97;668449;29;1449;-80
2023/06/09 01:18:15;;;;;;;8.68;7.50;;;;;;;14.31;100.00;100561.44;677981;29;1328;-79
2023/06/09 01:18:36;;;;;;;9.48;7.70;;;;;;;14.33;100.00;100564.03;676927;29;1327;-80
2023/06/09 01:19:05;;;;;;;8.50;7.60;;;;;;;14.29;100.00;100561.47;677424;29;1296;-80
2023/06/09 01:19:32;;;;;;;10.13;7.72;;;;;;;14.29;100.00;100545.69;678505;29;1326;-80
2023/06/09 01:20:04;;;;;;;9.15;7.70;;;;;;;14.26;100.00;100545.75;673947;29;1124;-79
2023/06/09 01:21:12;;;;;;;8.73;7.78;;;;;;;14.27;100.00;100549.25;677086;29;1259;-79
2023/06/09 01:21:45;;;;;;;9.38;7.68;;;;;;;14.30;100.00;100571.09;675821;29;1339;-79
2023/06/09 01:22:32;;;;;;;8.82;7.78;;;;;;;14.29;100.00;100587.75;681423;29;1367;-79
2023/06/09 01:23:31;;;;;;;8.68;7.80;;;;;;;14.34;100.00;100573.66;678524;29;1244;-80
2023/06/09 01:24:20;;;;;;;8.43;7.35;;;;;;;14.35;100.00;100568.34;677233;29;1145;-79
2023/06/09 01:25:17;;;;;;;8.38;7.47;;;;;;;14.42;100.00;100569.09;673425;29;1316;-80
2023/06/09 01:25:45;;;;;;;8.20;7.25;;;;;;;14.36;100.00;100566.56;671819;29;1154;-79
2023/06/09 01:26:10;;;;;;;8.30;7.50;;;;;;;14.22;100.00;100575.66;675074;29;1355;-79
2023/06/09 01:26:34;;;;;;;9.00;7.78;;;;;;;14.23;100.00;100577.38;672729;29;1271;-79
2023/06/09 01:26:58;;;;;;;9.20;7.60;;;;;;;14.18;100.00;100579.25;673879;29;1262;-79
2023/06/09 01:27:26;;;;;;;8.88;7.32;;;;;;;14.15;100.00;100595.09;680131;29;1499;-80
2023/06/09 01:27:49;;;;;;;9.48;7.80;;;;;;;14.15;100.00;100579.31;673526;29;1384;-80
2023/06/09 01:28:15;;;;;;;8.77;7.88;;;;;;;14.18;100.00;100568.72;669864;29;1011;-80
2023/06/09 01:28:43;;;;;;;8.75;7.85;;;;;;;14.17;100.00;100566.97;676569;29;1946;-79
2023/06/09 01:29:08;;;;;;;8.70;7.80;;;;;;;14.18;100.00;100567.84;674048;29;1314;-79
2023/06/09 01:29:32;;;;;;;8.43;7.50;;;;;;;14.17;100.00;100566.13;675337;29;1265;-80
2023/06/09 01:29:55;;;;;;;9.20;7.70;;;;;;;14.17;100.00;100580.13;669201;29;1230;-80
2023/06/09 01:30:30;;;;;;;8.88;7.93;;;;;;;14.16;100.00;100564.38;677379;29;1318;-80
2023/06/09 01:30:57;;;;;;;9.23;8.23;;;;;;;14.10;100.00;100565.38;676229;29;1292;-79
2023/06/09 01:31:30;;;;;;;9.32;8.32;;;;;;;14.05;100.00;100556.72;677059;29;938;-79
2023/06/09 01:31:55;;;;;;;8.88;7.97;;;;;;;13.96;100.00;100586.69;675400;29;1295;-79
2023/06/09 01:32:20;;;;;;;8.90;8.00;;;;;;;13.91;100.00;100564.88;679336;29;1086;-79
2023/06/09 01:32:42;;;;;;;8.95;8.05;;;;;;;13.90;100.00;100569.28;680139;29;894;-79
2023/06/09 01:33:09;;;;;;;8.70;7.80;;;;;;;13.89;100.00;100561.44;677465;29;1250;-79
2023/06/09 01:33:34;;;;;;;8.93;8.02;;;;;;;13.85;100.00;100565.88;675898;29;1367;-79
2023/06/09 01:33:56;;;;;;;8.82;7.93;;;;;;;13.94;100.00;100585.84;676641;29;1406;-80
2023/06/09 01:34:17;;;;;;;9.25;8.25;;;;;;;14.02;100.00;100585.72;674703;29;1154;-80
2023/06/09 01:34:39;;;;;;;9.45;8.30;;;;;;;13.98;100.00;100582.25;673690;29;1055;-80
2023/06/09 01:35:03;;;;;;;8.95;8.05;;;;;;;14.00;100.00;100592.75;674947;29;1210;-79
2023/06/09 01:35:30;;;;;;;8.82;7.93;;;;;;;14.01;100.00;100581.34;668418;29;1349;-80
2023/06/09 01:35:52;;;;;;;8.75;7.85;;;;;;;14.01;100.00;100570.81;668629;29;936;-79
2023/06/09 01:36:16;;;;;;;9.20;7.95;;;;;;;14.00;100.00;100574.34;671912;29;1251;-79
2023/06/09 01:36:50;;;;;;;8.88;7.97;;;;;;;13.99;100.00;100570.00;677456;29;1459;-80
2023/06/09 01:37:17;;;;;;;8.40;7.55;;;;;;;13.97;100.00;100575.28;677854;29;1503;-80
2023/06/09 01:37:56;;;;;;;11.27;8.30;;;;;;;13.92;100.00;100582.41;673719;29;1233;-80
2023/06/09 01:38:22;;;;;;;8.77;7.88;;;;;;;13.92;100.00;100564.00;677897;29;1085;-80
2023/06/09 01:38:47;;;;;;;8.75;7.85;;;;;;;13.92;100.00;100561.38;676224;29;1297;-80
2023/06/09 01:39:09;;;;;;;9.13;8.15;;;;;;;13.94;100.00;100586.72;677650;29;1393;-80
2023/06/09 01:39:30;;;;;;;9.50;8.60;;;;;;;13.94;100.00;100573.59;676621;29;1299;-79
2023/06/09 01:39:51;;;;;;;8.98;8.07;;;;;;;13.94;100.00;100580.59;678738;29;1254;-79
2023/06/09 01:40:12;;;;;;;9.73;8.03;;;;;;;13.95;100.00;100577.94;672901;29;1179;-79
2023/06/09 01:40:43;;;;;;;9.20;8.13;;;;;;;13.94;100.00;100577.97;672843;29;1392;-80
2023/06/09 01:41:04;;;;;;;9.07;7.82;;;;;;;13.95;100.00;100588.44;670188;29;1334;-80
2023/06/09 01:41:28;;;;;;;9.73;7.75;;;;;;;13.94;100.00;100560.44;674539;29;1345;-79
2023/06/09 01:41:56;;;;;;;8.93;8.00;;;;;;;13.93;100.00;100577.09;673388;29;1344;-79
2023/06/09 01:42:19;;;;;;;9.30;8.02;;;;;;;13.91;100.00;100578.88;675732;29;1686;-80
2023/06/09 01:42:40;;;;;;;10.30;8.10;;;;;;;13.91;100.00;100576.25;673332;29;1392;-80
2023/06/09 01:43:08;;;;;;;8.90;8.00;;;;;;;13.98;100.00;100565.63;671528;29;1270;-80
2023/06/09 01:43:30;;;;;;;8.98;8.07;;;;;;;14.02;100.00;100577.81;673631;29;906;-80
2023/06/09 01:43:51;;;;;;;9.50;8.50;;;;;;;14.00;100.00;100574.34;678077;29;1199;-79
2023/06/09 01:44:12;;;;;;;10.00;8.43;;;;;;;13.96;100.00;100579.66;682829;29;1550;-80
2023/06/09 01:44:43;;;;;;;10.63;8.38;;;;;;;13.96;100.00;100563.91;676750;29;1356;-79
2023/06/09 01:45:04;;;;;;;8.80;7.90;;;;;;;13.99;100.00;100572.63;671382;29;1388;-79
2023/06/09 01:45:28;;;;;;;9.32;8.10;;;;;;;14.00;100.00;100584.84;673478;29;1275;-79
2023/06/09 01:45:52;;;;;;;8.77;7.70;;;;;;;14.01;100.00;100563.81;675786;29;1296;-79
2023/06/09 01:46:13;;;;;;;9.30;8.02;;;;;;;14.00;100.00;100569.97;677918;29;935;-79
2023/06/09 01:46:36;;;;;;;8.98;8.07;;;;;;;14.01;100.00;100586.59;675060;29;1254;-79
2023/06/09 01:46:57;;;;;;;8.98;8.00;;;;;;;14.03;100.00;100576.94;671454;29;1188;-80
2023/06/09 01:47:23;;;;;;;10.05;7.57;;;;;;;14.04;100.00;100582.16;674797;29;1432;-79
2023/06/09 01:47:47;;;;;;;9.30;7.80;;;;;;;14.01;100.00;100586.59;672751;29;1282;-79
2023/06/09 01:48:50;;;;;;;9.43;8.25;;;;;;;14.03;100.00;100564.66;675163;29;1347;-79
2023/06/09 01:49:26;;;;;;;8.25;7.45;;;;;;;14.02;100.00;100593.59;674803;29;1349;-79
2023/06/09 01:49:49;;;;;;;8.60;7.70;;;;;;;14.03;100.00;100564.66;674189;29;1102;-79
2023/06/09 01:50:23;;;;;;;8.55;7.50;;;;;;;14.03;100.00;100579.56;675130;29;1322;-79
2023/06/09 01:50:58;;;;;;;8.70;7.80;;;;;;;14.04;100.00;100566.38;673052;29;1242;-80
2023/06/09 01:51:42;;;;;;;8.73;7.70;;;;;;;14.05;100.00;100564.59;671286;29;1205;-79
2023/06/09 01:52:09;;;;;;;9.38;8.38;;;;;;;14.05;100.00;100564.59;675040;29;1454;-79
2023/06/09 01:52:53;;;;;;;8.93;8.02;;;;;;;14.02;100.00;100560.28;674533;29;854;-80
2023/06/09 01:53:20;;;;;;;8.50;7.60;;;;;;;14.00;100.00;100559.47;676873;29;975;-80
2023/06/09 01:53:46;;;;;;;9.20;7.90;;;;;;;14.01;100.00;100583.97;675947;29;1113;-79
2023/06/09 01:54:10;;;;;;;8.65;7.75;;;;;;;14.02;100.00;100567.31;681059;29;931;-79
2023/06/09 01:54:43;;;;;;;8.52;7.63;;;;;;;14.00;100.00;100569.97;676113;29;1261;-79
2023/06/09 01:55:12;;;;;;;8.90;8.00;;;;;;;13.95;100.00;100562.16;678203;29;1432;-79
2023/06/09 01:55:42;;;;;;;9.35;8.35;;;;;;;13.93;100.00;100565.75;679124;29;1147;-79
2023/06/09 01:56:26;;;;;;;8.68;7.68;;;;;;;13.93;100.00;100563.97;676862;29;1316;-80
2023/06/09 01:57:05;;;;;;;8.65;7.75;;;;;;;13.94;100.00;100555.19;674488;29;1249;-79
2023/06/09 01:57:38;;;;;;;10.70;8.20;;;;;;;13.93;100.00;100566.59;673539;29;1208;-79
2023/06/09 01:58:12;;;;;;;8.70;7.82;;;;;;;13.94;100.00;100555.19;680184;29;1403;-80
2023/06/09 01:58:42;;;;;;;8.93;7.82;;;;;;;13.93;100.00;100571.84;682222;29;1344;-80
2023/06/09 01:59:14;;;;;;;8.32;7.40;;;;;;;13.93;100.00;100556.09;678231;29;1193;-79
2023/06/09 01:59:53;;;;;;;8.90;7.85;;;;;;;13.92;100.00;100572.75;681688;29;1335;-79
2023/06/09 02:00:16;;;;;;;9.00;7.88;;;;;;;13.87;100.00;100566.69;674368;29;1636;-80
2023/06/09 02:00:38;;;;;;;8.85;7.82;;;;;;;13.86;100.00;100578.13;675350;29;905;-80
2023/06/09 02:01:01;;;;;;;8.70;7.78;;;;;;;13.89;100.00;100598.22;672645;29;1257;-80
2023/06/09 02:01:23;;;;;;;9.02;7.88;;;;;;;13.87;100.00;100579.84;672676;29;1354;-80
2023/06/09 02:01:50;;;;;;;8.88;7.97;;;;;;;13.86;100.00;100577.25;670922;29;1378;-79
2023/06/09 02:02:13;;;;;;;9.18;8.00;;;;;;;13.85;100.00;100560.63;674358;29;1488;-80
2023/06/09 02:02:37;;;;;;;8.88;7.97;;;;;;;13.85;100.00;100568.50;677419;29;1312;-80
2023/06/09 02:03:03;;;;;;;9.00;8.10;;;;;;;13.85;100.00;100586.06;669916;29;1436;-80
2023/06/09 02:03:26;;;;;;;8.90;8.00;;;;;;;13.83;100.00;100557.19;672754;29;878;-79
2023/06/09 02:04:00;;;;;;;8.40;7.50;;;;;;;13.85;100.00;100579.03;673846;29;975;-79
2023/06/09 02:04:25;;;;;;;8.90;8.00;;;;;;;13.85;100.00;100576.41;676667;29;3275;-80
2023/06/09 02:04:50;;;;;;;10.73;7.88;;;;;;;13.81;100.00;100564.22;675953;29;1781;-79
2023/06/09 02:05:15;;;;;;;9.93;8.02;;;;;;;13.79;100.00;100585.25;673956;29;1154;-79
2023/06/09 02:05:37;;;;;;;9.55;8.07;;;;;;;13.77;100.00;100566.03;672378;29;1237;-79
2023/06/09 02:06:03;;;;;;;9.07;7.97;;;;;;;13.78;100.00;100565.13;672034;29;1319;-79
2023/06/09 02:06:25;;;;;;;8.88;7.97;;;;;;;13.83;100.00;100604.47;674387;29;1482;-80
2023/06/09 02:06:47;;;;;;;8.68;7.78;;;;;;;13.83;100.00;100587.81;674509;29;1658;-80
2023/06/09 02:07:09;;;;;;;9.07;7.85;;;;;;;13.83;100.00;100591.34;677477;29;1148;-79
2023/06/09 02:07:32;;;;;;;9.75;8.20;;;;;;;13.84;100.00;100568.53;672662;29;1394;-80
2023/06/09 02:07:54;;;;;;;8.50;7.60;;;;;;;13.85;100.00;100570.28;674206;29;1350;-79
2023/06/09 02:08:17;;;;;;;9.38;8.13;;;;;;;13.83;100.00;100566.81;674770;29;1239;-79
2023/06/09 02:08:49;;;;;;;9.18;8.00;;;;;;;13.79;100.00;100566.88;677656;29;1315;-79
2023/06/09 02:09:14;;;;;;;9.52;8.20;;;;;;;13.80;100.00;100588.75;679523;29;1322;-79